createdAt,value
2023-04-19T00:00:22.560Z,983.36
2023-04-19T00:01:22.495Z,983.36
2023-04-19T00:02:22.534Z,983.32
2023-04-19T00:03:22.462Z,983.34
2023-04-19T00:04:22.476Z,983.33
2023-04-19T00:05:22.299Z,983.34
2023-04-19T00:06:22.076Z,983.31
2023-04-19T00:07:22.012Z,983.28
2023-04-19T00:08:21.913Z,983.29
2023-04-19T00:09:21.832Z,983.28
2023-04-19T00:10:21.748Z,983.28
2023-04-19T00:11:21.667Z,983.28
2023-04-19T00:12:21.607Z,983.27
2023-04-19T00:13:21.504Z,983.27
2023-04-19T00:14:21.431Z,983.26
2023-04-19T00:15:21.359Z,983.24
2023-04-19T00:16:21.289Z,983.23
2023-04-19T00:17:21.219Z,983.23
2023-04-19T00:18:21.098Z,983.20
2023-04-19T00:19:21.021Z,983.19
2023-04-19T00:20:20.936Z,983.21
2023-04-19T00:21:20.860Z,983.25
2023-04-19T00:22:20.775Z,983.22
2023-04-19T00:23:20.700Z,983.23
2023-04-19T00:24:20.617Z,983.19
2023-04-19T00:25:20.534Z,983.22
2023-04-19T00:26:20.450Z,983.20
2023-04-19T00:27:20.374Z,983.19
2023-04-19T00:28:20.288Z,983.20
2023-04-19T00:29:20.209Z,983.18
2023-04-19T00:30:20.124Z,983.14
2023-04-19T00:31:20.074Z,983.15
2023-04-19T00:32:19.963Z,983.17
2023-04-19T00:33:19.893Z,983.18
2023-04-19T00:34:19.806Z,983.14
2023-04-19T00:35:19.716Z,983.14
2023-04-19T00:36:19.643Z,983.15
2023-04-19T00:37:19.558Z,983.11
2023-04-19T00:38:19.471Z,983.08
2023-04-19T00:39:19.397Z,983.11
2023-04-19T00:40:19.314Z,983.08
2023-04-19T00:41:19.235Z,983.07
2023-04-19T00:42:19.160Z,983.10
2023-04-19T00:43:19.079Z,983.05
2023-04-19T00:44:19.007Z,983.05
2023-04-19T00:45:18.916Z,983.03
2023-04-19T00:46:18.883Z,982.98
2023-04-19T00:47:18.751Z,982.98
2023-04-19T00:48:18.677Z,982.98
2023-04-19T00:49:18.633Z,983.01
2023-04-19T00:50:18.513Z,983.00
2023-04-19T00:51:18.428Z,982.98
2023-04-19T00:52:18.350Z,982.98
2023-04-19T00:53:18.389Z,983.02
2023-04-19T00:54:18.233Z,982.95
2023-04-19T00:55:18.104Z,982.96
2023-04-19T00:56:18.025Z,982.92
2023-04-19T00:57:17.946Z,982.95
2023-04-19T00:58:17.888Z,982.93
2023-04-19T00:59:17.783Z,982.96
2023-04-19T01:00:17.699Z,982.96
2023-04-19T01:01:17.651Z,982.95
2023-04-19T01:02:17.714Z,982.97
2023-04-19T01:03:17.618Z,982.95
2023-04-19T01:05:17.288Z,982.93
2023-04-19T01:06:17.225Z,982.93
2023-04-19T01:07:17.124Z,982.92
2023-04-19T01:08:17.044Z,982.90
2023-04-19T01:09:16.972Z,982.90
2023-04-19T01:10:16.889Z,982.88
2023-04-19T01:11:16.810Z,982.88
2023-04-19T01:12:16.723Z,982.88
2023-04-19T01:13:16.641Z,982.89
2023-04-19T01:14:16.678Z,982.89
2023-04-19T01:15:16.472Z,982.91
2023-04-19T01:16:16.419Z,982.90
2023-04-19T01:17:16.317Z,982.90
2023-04-19T01:18:16.252Z,982.88
2023-04-19T01:19:16.150Z,982.90
2023-04-19T01:20:16.084Z,982.86
2023-04-19T01:21:15.987Z,982.88
2023-04-19T01:22:15.911Z,982.87
2023-04-19T01:23:15.825Z,982.86
2023-04-19T01:24:15.976Z,982.84
2023-04-19T01:25:15.693Z,982.84
2023-04-19T01:26:15.588Z,982.82
2023-04-19T01:27:15.502Z,982.76
2023-04-19T01:28:15.425Z,982.71
2023-04-19T01:29:15.343Z,982.71
2023-04-19T01:30:15.255Z,982.67
2023-04-19T01:31:15.229Z,982.69
2023-04-19T01:32:15.143Z,982.68
2023-04-19T01:33:15.016Z,982.69
2023-04-19T01:34:15.190Z,982.67
2023-04-19T01:35:14.858Z,982.66
2023-04-19T01:36:14.776Z,982.69
2023-04-19T01:37:14.688Z,982.66
2023-04-19T01:38:14.630Z,982.63
2023-04-19T01:39:14.534Z,982.63
2023-04-19T01:40:14.442Z,982.61
2023-04-19T01:41:14.437Z,982.63
2023-04-19T01:42:14.283Z,982.62
2023-04-19T01:43:14.209Z,982.64
2023-04-19T01:44:14.352Z,982.62
2023-04-19T01:45:14.040Z,982.62
2023-04-19T01:46:14.026Z,982.58
2023-04-19T01:47:13.918Z,982.57
2023-04-19T01:48:13.802Z,982.58
2023-04-19T01:49:13.710Z,982.56
2023-04-19T01:50:13.640Z,982.58
2023-04-19T01:51:13.551Z,982.58
2023-04-19T01:52:13.473Z,982.55
2023-04-19T01:53:13.393Z,982.55
2023-04-19T01:54:13.454Z,982.55
2023-04-19T01:55:13.231Z,982.55
2023-04-19T01:56:13.155Z,982.57
2023-04-19T01:57:13.169Z,982.54
2023-04-19T01:58:12.983Z,982.53
2023-04-19T01:59:12.906Z,982.50
2023-04-19T02:00:12.831Z,982.47
2023-04-19T02:01:12.783Z,982.48
2023-04-19T02:02:12.696Z,982.47
2023-04-19T02:03:12.668Z,982.43
2023-04-19T02:04:12.550Z,982.42
2023-04-19T02:05:12.410Z,982.43
2023-04-19T02:06:12.333Z,982.45
2023-04-19T02:07:12.263Z,982.45
2023-04-19T02:08:12.169Z,982.43
2023-04-19T02:09:12.088Z,982.46
2023-04-19T02:10:12.013Z,982.42
2023-04-19T02:11:11.930Z,982.43
2023-04-19T02:12:11.855Z,982.39
2023-04-19T02:13:11.763Z,982.37
2023-04-19T02:14:11.683Z,982.34
2023-04-19T02:15:11.603Z,982.35
2023-04-19T02:16:11.605Z,982.34
2023-04-19T02:17:11.437Z,982.34
2023-04-19T02:18:11.361Z,982.37
2023-04-19T02:19:11.277Z,982.37
2023-04-19T02:20:11.232Z,982.37
2023-04-19T02:21:11.172Z,982.40
2023-04-19T02:22:11.035Z,982.35
2023-04-19T02:23:10.951Z,982.35
2023-04-19T02:24:10.876Z,982.36
2023-04-19T02:25:10.789Z,982.34
2023-04-19T02:26:10.709Z,982.32
2023-04-19T02:27:10.624Z,982.29
2023-04-19T02:28:10.538Z,982.25
2023-04-19T02:29:10.467Z,982.27
2023-04-19T02:30:10.416Z,982.26
2023-04-19T02:31:10.301Z,982.25
2023-04-19T02:32:10.246Z,982.27
2023-04-19T02:33:10.137Z,982.29
2023-04-19T02:34:10.056Z,982.28
2023-04-19T02:35:09.976Z,982.29
2023-04-19T02:36:09.904Z,982.27
2023-04-19T02:37:09.813Z,982.25
2023-04-19T02:38:09.731Z,982.24
2023-04-19T04:06:10.500Z,981.54
2023-04-19T04:07:10.418Z,981.52
2023-04-19T04:08:10.315Z,981.51
2023-04-19T04:09:10.220Z,981.50
2023-04-19T04:10:10.142Z,981.54
2023-04-19T04:11:10.059Z,981.52
2023-04-19T04:12:09.985Z,981.51
2023-04-19T04:13:09.890Z,981.51
2023-04-19T04:14:09.814Z,981.49
2023-04-19T04:15:09.728Z,981.50
2023-04-19T04:16:09.657Z,981.54
2023-04-19T04:17:09.574Z,981.53
2023-04-19T04:18:09.506Z,981.53
2023-04-19T04:19:09.772Z,981.58
2023-04-19T04:20:09.336Z,981.51
2023-04-19T04:21:09.254Z,981.55
2023-04-19T04:22:09.169Z,981.56
2023-04-19T04:23:09.096Z,981.58
2023-04-19T04:24:08.984Z,981.60
2023-04-19T04:25:08.910Z,981.63
2023-04-19T04:26:08.820Z,981.60
2023-04-19T04:27:08.744Z,981.62
2023-04-19T04:28:08.667Z,981.64
2023-04-19T04:29:08.584Z,981.63
2023-04-19T04:30:08.502Z,981.62
2023-04-19T04:31:08.419Z,981.65
2023-04-19T04:32:08.395Z,981.65
2023-04-19T04:33:08.258Z,981.69
2023-04-19T04:34:08.189Z,981.66
2023-04-19T04:35:08.104Z,981.68
2023-04-19T04:36:09.810Z,981.65
2023-04-19T04:37:07.934Z,981.65
2023-04-19T04:38:17.595Z,981.65
2023-04-19T04:39:07.781Z,981.66
2023-04-19T04:40:07.699Z,981.65
2023-04-19T04:41:07.613Z,981.63
2023-04-19T04:42:07.530Z,981.63
2023-04-19T04:43:07.448Z,981.61
2023-04-19T04:44:12.556Z,981.60
2023-04-19T04:45:07.284Z,981.60
2023-04-19T04:46:07.249Z,981.63
2023-04-19T04:47:07.126Z,981.66
2023-04-19T04:48:07.100Z,981.60
2023-04-19T04:49:06.964Z,981.62
2023-04-19T04:50:06.878Z,981.63
2023-04-19T04:51:06.796Z,981.64
2023-04-19T04:52:06.760Z,981.64
2023-04-19T04:53:06.632Z,981.65
2023-04-19T04:54:06.559Z,981.67
2023-04-19T04:55:06.485Z,981.65
2023-04-19T04:56:06.399Z,981.63
2023-04-19T04:57:06.308Z,981.66
2023-04-19T04:58:06.234Z,981.67
2023-04-19T04:59:06.144Z,981.65
2023-04-19T05:00:06.068Z,981.63
2023-04-19T05:01:06.006Z,981.64
2023-04-19T05:02:06.069Z,981.64
2023-04-19T05:03:05.896Z,981.61
2023-04-19T05:04:05.802Z,981.62
2023-04-19T05:05:05.656Z,981.62
2023-04-19T05:06:05.578Z,981.59
2023-04-19T05:07:05.503Z,981.57
2023-04-19T05:08:05.417Z,981.55
2023-04-19T05:09:05.321Z,981.56
2023-04-19T05:10:05.255Z,981.53
2023-04-19T05:11:05.156Z,981.49
2023-04-19T05:12:05.078Z,981.48
2023-04-19T05:13:05.001Z,981.53
2023-04-19T05:14:04.914Z,981.50
2023-04-19T05:15:04.833Z,981.49
2023-04-19T05:16:04.797Z,981.50
2023-04-19T05:17:06.987Z,981.45
2023-04-19T05:18:04.629Z,981.48
2023-04-19T05:19:04.515Z,981.49
2023-04-19T05:20:04.424Z,981.48
2023-04-19T05:21:04.338Z,981.47
2023-04-19T05:22:04.282Z,981.47
2023-04-19T05:23:04.174Z,981.46
2023-04-19T05:24:04.099Z,981.46
2023-04-19T05:25:04.010Z,981.47
2023-04-19T05:26:03.948Z,981.49
2023-04-19T05:27:03.848Z,981.45
2023-04-19T05:28:03.782Z,981.42
2023-04-19T05:29:03.699Z,981.46
2023-04-19T05:30:03.609Z,981.41
2023-04-19T05:31:03.529Z,981.44
2023-04-19T05:32:03.448Z,981.46
2023-04-19T05:33:03.362Z,981.42
2023-04-19T05:34:03.274Z,981.44
2023-04-19T05:35:03.194Z,981.42
2023-04-19T05:36:03.116Z,981.43
2023-04-19T05:37:03.034Z,981.41
2023-04-19T05:38:02.958Z,981.40
2023-04-19T05:39:02.877Z,981.42
2023-04-19T05:40:02.793Z,981.44
2023-04-19T05:41:02.706Z,981.40
2023-04-19T05:42:02.674Z,981.37
2023-04-19T05:43:02.557Z,981.37
2023-04-19T05:44:02.469Z,981.37
2023-04-19T05:45:03.961Z,981.35
2023-04-19T05:46:02.366Z,981.37
2023-04-19T05:47:02.224Z,981.36
2023-04-19T05:48:02.219Z,981.36
2023-04-19T05:49:02.052Z,981.32
2023-04-19T05:50:01.988Z,981.33
2023-04-19T05:51:01.889Z,981.33
2023-04-19T05:52:01.806Z,981.35
2023-04-19T05:53:01.723Z,981.33
2023-04-19T05:54:01.704Z,981.35
2023-04-19T05:55:01.584Z,981.36
2023-04-19T05:56:01.479Z,981.38
2023-04-19T05:57:01.423Z,981.39
2023-04-19T05:58:01.421Z,981.36
2023-04-19T05:59:01.236Z,981.37
2023-04-19T06:00:01.217Z,981.34
2023-04-19T06:01:01.117Z,981.36
2023-04-19T06:02:01.117Z,981.38
2023-04-19T06:03:01.158Z,981.39
2023-04-19T06:04:00.911Z,981.37
2023-04-19T06:05:02.754Z,981.36
2023-04-19T06:06:00.726Z,981.38
2023-04-19T06:07:00.577Z,981.36
2023-04-19T06:08:02.866Z,981.37
2023-04-19T06:09:00.464Z,981.33
2023-04-19T06:10:00.342Z,981.33
2023-04-19T06:11:08.117Z,981.34
2023-04-19T06:12:00.179Z,981.36
2023-04-19T06:13:00.102Z,981.34
2023-04-19T06:14:00.015Z,981.34
2023-04-19T06:14:59.933Z,981.35
2023-04-19T06:15:59.870Z,981.35
2023-04-19T06:16:59.756Z,981.37
2023-04-19T06:18:00.040Z,981.31
2023-04-19T06:18:59.600Z,981.32
2023-04-19T06:19:59.510Z,981.31
2023-04-19T06:20:59.423Z,981.33
2023-04-19T06:21:59.346Z,981.27
2023-04-19T06:22:59.263Z,981.31
2023-04-19T06:23:59.263Z,981.28
2023-04-19T06:24:59.107Z,981.28
2023-04-19T06:25:59.023Z,981.29
2023-04-19T06:26:58.934Z,981.27
2023-04-19T06:27:58.867Z,981.28
2023-04-19T06:28:58.782Z,981.29
2023-04-19T06:29:58.699Z,981.27
2023-04-19T06:30:58.615Z,981.26
2023-04-19T06:31:58.595Z,981.31
2023-04-19T06:32:58.481Z,981.28
2023-04-19T06:33:58.383Z,981.26
2023-04-19T06:34:58.284Z,981.24
2023-04-19T06:35:58.207Z,981.28
2023-04-19T06:36:58.119Z,981.27
2023-04-19T06:37:58.046Z,981.24
2023-04-19T06:38:57.960Z,981.27
2023-04-19T06:39:57.883Z,981.25
2023-04-19T06:40:57.798Z,981.24
2023-04-19T06:41:57.709Z,981.21
2023-04-19T06:42:57.639Z,981.24
2023-04-19T06:43:57.549Z,981.23
2023-04-19T06:44:57.478Z,981.22
2023-04-19T06:45:57.460Z,981.23
2023-04-19T06:46:57.307Z,981.22
2023-04-19T06:47:57.233Z,981.22
2023-04-19T06:48:57.148Z,981.22
2023-04-19T06:49:57.083Z,981.22
2023-04-19T06:50:56.975Z,981.21
2023-04-19T06:51:56.901Z,981.18
2023-04-19T06:52:56.808Z,981.17
2023-04-19T06:53:56.731Z,981.18
2023-04-19T06:54:56.663Z,981.16
2023-04-19T06:55:56.568Z,981.19
2023-04-19T06:56:56.491Z,981.17
2023-04-19T06:57:56.416Z,981.17
2023-04-19T06:58:56.324Z,981.15
2023-04-19T06:59:56.242Z,981.13
2023-04-19T07:00:56.181Z,981.12
2023-04-19T07:01:56.193Z,981.11
2023-04-19T07:02:56.090Z,981.13
2023-04-19T07:03:57.504Z,981.09
2023-04-19T07:04:55.835Z,981.08
2023-04-19T07:05:55.760Z,981.08
2023-04-19T07:06:55.679Z,981.08
2023-04-19T07:07:55.590Z,981.07
2023-04-19T07:08:55.506Z,981.02
2023-04-19T07:09:55.432Z,981.04
2023-04-19T07:10:55.344Z,981.01
2023-04-19T07:11:55.264Z,980.98
2023-04-19T07:12:55.183Z,980.97
2023-04-19T07:13:55.110Z,980.96
2023-04-19T07:14:55.028Z,980.98
2023-04-19T07:15:55.013Z,980.92
2023-04-19T07:16:54.854Z,980.95
2023-04-19T07:17:54.809Z,980.91
2023-04-19T07:18:54.701Z,980.93
2023-04-19T07:19:54.614Z,980.86
2023-04-19T07:20:54.527Z,980.91
2023-04-19T07:21:54.447Z,980.93
2023-04-19T07:22:54.373Z,980.92
2023-04-19T07:23:54.287Z,980.93
2023-04-19T07:24:54.201Z,980.94
2023-04-19T07:25:54.116Z,980.90
2023-04-19T07:26:54.046Z,980.94
2023-04-19T07:27:53.957Z,980.90
2023-04-19T07:28:53.893Z,980.88
2023-04-19T07:29:53.790Z,980.91
2023-04-19T07:30:53.708Z,980.89
2023-04-19T07:31:53.657Z,980.89
2023-04-19T07:32:53.590Z,980.90
2023-04-19T07:33:53.524Z,980.88
2023-04-19T07:34:53.387Z,980.88
2023-04-19T07:35:53.304Z,980.83
2023-04-19T07:36:53.221Z,980.85
2023-04-19T07:37:53.145Z,980.86
2023-04-19T07:38:53.097Z,980.82
2023-04-19T07:39:52.978Z,980.85
2023-04-19T07:40:52.902Z,980.81
2023-04-19T07:41:52.814Z,980.80
2023-04-19T07:42:52.735Z,980.78
2023-04-19T07:43:52.653Z,980.74
2023-04-19T07:44:52.565Z,980.75
2023-04-19T07:45:52.489Z,980.73
2023-04-19T07:46:52.502Z,980.72
2023-04-19T07:47:52.390Z,980.73
2023-04-19T07:48:52.246Z,980.69
2023-04-19T07:49:52.223Z,980.69
2023-04-19T07:50:52.089Z,980.70
2023-04-19T07:51:52.002Z,980.71
2023-04-19T07:52:51.920Z,980.69
2023-04-19T07:53:51.847Z,980.68
2023-04-19T07:54:51.758Z,980.70
2023-04-19T07:55:51.678Z,980.68
2023-04-19T07:56:51.602Z,980.71
2023-04-19T07:57:51.511Z,980.72
2023-04-19T07:59:04.394Z,980.69
2023-04-19T07:59:51.349Z,980.72
2023-04-19T08:00:51.297Z,980.70
2023-04-19T08:01:51.344Z,980.77
2023-04-19T08:02:51.337Z,980.71
2023-04-19T08:03:51.284Z,980.73
2023-04-19T08:04:51.235Z,980.75
2023-04-19T08:05:51.027Z,980.75
2023-04-19T08:06:50.793Z,980.70
2023-04-19T08:07:50.699Z,980.70
2023-04-19T08:08:50.625Z,980.70
2023-04-19T08:09:50.585Z,980.69
2023-04-19T08:10:50.470Z,980.67
2023-04-19T08:11:50.378Z,980.68
2023-04-19T08:13:04.519Z,980.68
2023-04-19T08:14:02.578Z,980.67
2023-04-19T08:15:00.611Z,980.66
2023-04-19T08:16:24.453Z,980.69
2023-04-19T08:17:14.166Z,980.71
2023-04-19T08:17:49.924Z,980.69
2023-04-19T08:18:49.808Z,980.69
2023-04-19T08:19:49.728Z,980.68
2023-04-19T08:20:49.647Z,980.66
2023-04-19T08:21:49.599Z,980.65
2023-04-19T08:22:49.486Z,980.64
2023-04-19T08:23:50.301Z,980.65
2023-04-19T08:24:49.322Z,980.66
2023-04-19T08:25:49.242Z,980.68
2023-04-19T08:26:49.162Z,980.67
2023-04-19T08:27:49.076Z,980.70
2023-04-19T08:28:49.001Z,980.66
2023-04-19T08:29:48.917Z,980.65
2023-04-19T08:30:48.840Z,980.66
2023-04-19T08:31:48.803Z,980.63
2023-04-19T08:32:48.720Z,980.64
2023-04-19T08:33:48.590Z,980.61
2023-04-19T08:34:48.513Z,980.65
2023-04-19T08:35:48.426Z,980.65
2023-04-19T08:37:00.213Z,980.64
2023-04-19T08:37:48.266Z,980.64
2023-04-19T08:38:58.063Z,980.64
2023-04-19T08:39:48.108Z,980.62
2023-04-19T08:40:48.024Z,980.64
2023-04-19T08:41:52.854Z,980.60
2023-04-19T08:42:47.866Z,980.62
2023-04-19T08:43:47.802Z,980.62
2023-04-19T08:45:47.671Z,980.59
2023-04-19T08:46:47.548Z,980.61
2023-04-19T08:47:59.651Z,980.61
2023-04-19T08:48:47.402Z,980.61
2023-04-19T08:49:47.579Z,980.61
2023-04-19T08:51:03.643Z,980.59
2023-04-19T08:51:47.135Z,980.58
2023-04-19T08:52:54.913Z,980.60
2023-04-19T08:53:47.023Z,980.56
2023-04-19T08:54:46.894Z,980.58
2023-04-19T08:56:03.406Z,980.57
2023-04-19T08:56:46.725Z,980.58
2023-04-19T08:57:46.658Z,980.58
2023-04-19T08:59:03.979Z,980.58
2023-04-19T08:59:46.479Z,980.56
2023-04-19T09:00:46.453Z,980.57
2023-04-19T09:01:46.333Z,980.58
2023-04-19T09:02:47.563Z,980.58
2023-04-19T09:03:59.449Z,980.58
2023-04-19T09:04:46.233Z,980.57
2023-04-19T09:05:46.080Z,980.55
2023-04-19T09:06:45.912Z,980.60
2023-04-19T09:07:45.837Z,980.60
2023-04-19T09:08:45.752Z,980.62
2023-04-19T09:09:55.940Z,980.56
2023-04-19T09:10:45.589Z,980.55
2023-04-19T09:11:45.505Z,980.56
2023-04-19T09:12:45.428Z,980.58
2023-04-19T09:13:45.342Z,980.57
2023-04-19T09:14:53.791Z,980.57
2023-04-19T09:15:45.180Z,980.57
2023-04-19T09:16:45.119Z,980.58
2023-04-19T09:17:45.071Z,980.58
2023-04-19T09:18:56.296Z,980.60
2023-04-19T09:19:44.856Z,980.62
2023-04-19T09:20:44.796Z,980.61
2023-04-19T09:21:44.693Z,980.64
2023-04-19T09:22:44.622Z,980.64
2023-04-19T09:23:44.532Z,980.58
2023-04-19T09:26:11.218Z,980.59
2023-04-19T09:26:44.294Z,980.57
2023-04-19T09:27:44.210Z,980.61
2023-04-19T09:28:44.132Z,980.55
2023-04-19T09:29:44.049Z,980.56
2023-04-19T09:30:58.121Z,980.59
2023-04-19T09:31:51.556Z,980.59
2023-04-19T09:32:43.873Z,980.57
2023-04-19T09:33:43.749Z,980.56
2023-04-19T09:34:43.636Z,980.54
2023-04-19T09:35:43.554Z,980.51
2023-04-19T09:36:43.472Z,980.56
2023-04-19T09:38:43.314Z,980.56
2023-04-19T09:39:43.233Z,980.49
2023-04-19T09:40:43.204Z,980.57
2023-04-19T09:41:43.751Z,980.51
2023-04-19T09:44:01.570Z,980.51
2023-04-19T09:45:20.936Z,980.54
2023-04-19T09:45:42.750Z,980.49
2023-04-19T09:46:42.745Z,980.46
2023-04-19T09:47:42.610Z,980.46
2023-04-19T09:48:42.503Z,980.46
2023-04-19T09:49:48.821Z,980.44
2023-04-19T09:50:54.843Z,980.48
2023-04-19T09:51:42.285Z,980.48
2023-04-19T09:52:42.179Z,980.44
2023-04-19T09:53:42.089Z,980.44
2023-04-19T09:54:42.056Z,980.43
2023-04-19T09:55:57.060Z,980.46
2023-04-19T09:56:41.852Z,980.41
2023-04-19T09:57:41.827Z,980.38
2023-04-19T09:58:49.940Z,980.41
2023-04-19T09:59:41.604Z,980.38
2023-04-19T10:00:47.858Z,980.34
2023-04-19T10:01:41.493Z,980.31
2023-04-19T10:02:41.432Z,980.34
2023-04-19T10:03:41.521Z,980.30
2023-04-19T10:05:41.203Z,980.35
2023-04-19T10:07:40.978Z,980.35
2023-04-19T10:08:40.877Z,980.36
2023-04-19T10:09:51.357Z,980.33
2023-04-19T10:10:42.512Z,980.31
2023-04-19T10:11:41.518Z,980.29
2023-04-19T10:13:07.023Z,980.30
2023-04-19T10:13:40.517Z,980.28
2023-04-19T10:14:40.391Z,980.25
2023-04-19T10:15:49.981Z,980.26
2023-04-19T10:16:40.256Z,980.21
2023-04-19T10:17:40.256Z,980.25
2023-04-19T10:18:40.091Z,980.25
2023-04-19T10:19:39.985Z,980.22
2023-04-19T10:20:39.905Z,980.22
2023-04-19T10:21:39.823Z,980.20
2023-04-19T10:22:39.750Z,980.21
2023-04-19T10:23:39.658Z,980.24
2023-04-19T10:24:39.576Z,980.21
2023-04-19T10:25:39.494Z,980.22
2023-04-19T10:26:39.418Z,980.20
2023-04-19T10:27:39.348Z,980.24
2023-04-19T10:28:39.254Z,980.26
2023-04-19T10:29:39.224Z,980.24
2023-04-19T10:30:39.152Z,980.22
2023-04-19T10:31:39.158Z,980.23
2023-04-19T10:32:38.961Z,980.16
2023-04-19T10:33:38.862Z,980.20
2023-04-19T10:34:38.768Z,980.22
2023-04-19T10:35:38.690Z,980.17
2023-04-19T10:36:38.605Z,980.15
2023-04-19T10:37:38.518Z,980.15
2023-04-19T10:38:38.477Z,980.17
2023-04-19T10:39:38.358Z,980.13
2023-04-19T10:40:38.292Z,980.16
2023-04-19T10:41:38.196Z,980.15
2023-04-19T10:42:38.126Z,980.15
2023-04-19T10:43:38.041Z,980.11
2023-04-19T10:44:37.953Z,980.10
2023-04-19T10:45:38.119Z,980.05
2023-04-19T10:46:37.846Z,980.07
2023-04-19T10:47:37.782Z,980.03
2023-04-19T10:48:37.630Z,980.02
2023-04-19T10:49:37.548Z,980.05
2023-04-19T10:50:37.467Z,980.00
2023-04-19T10:51:37.381Z,980.04
2023-04-19T10:52:37.305Z,980.00
2023-04-19T10:53:37.220Z,980.01
2023-04-19T10:54:37.151Z,979.97
2023-04-19T10:55:37.063Z,979.94
2023-04-19T10:56:37.015Z,979.95
2023-04-19T10:57:36.897Z,979.92
2023-04-19T10:58:36.818Z,979.93
2023-04-19T10:59:36.797Z,979.89
2023-04-19T11:00:36.653Z,979.85
2023-04-19T11:01:36.645Z,979.87
2023-04-19T11:02:36.597Z,979.83
2023-04-19T11:03:36.577Z,979.82
2023-04-19T11:04:36.551Z,979.82
2023-04-19T11:05:36.254Z,979.81
2023-04-19T11:06:36.185Z,979.80
2023-04-19T11:07:36.091Z,979.81
2023-04-19T11:08:36.025Z,979.77
2023-04-19T11:09:35.961Z,979.77
2023-04-19T11:10:35.855Z,979.73
2023-04-19T11:11:35.779Z,979.80
2023-04-19T11:12:35.689Z,979.74
2023-04-19T11:13:35.602Z,979.73
2023-04-19T11:14:35.536Z,979.72
2023-04-19T11:15:35.485Z,979.67
2023-04-19T11:16:45.849Z,979.66
2023-04-19T11:17:35.364Z,979.59
2023-04-19T11:18:35.225Z,979.60
2023-04-19T11:19:35.127Z,979.57
2023-04-19T11:20:35.038Z,979.60
2023-04-19T11:21:34.958Z,979.54
2023-04-19T11:22:34.882Z,979.55
2023-04-19T11:23:34.795Z,979.53
2023-04-19T11:24:34.720Z,979.55
2023-04-19T11:25:34.636Z,979.53
2023-04-19T11:26:34.570Z,979.47
2023-04-19T11:27:34.472Z,979.53
2023-04-19T11:28:34.403Z,979.54
2023-04-19T11:29:34.312Z,979.52
2023-04-19T11:30:34.241Z,979.51
2023-04-19T11:31:34.176Z,979.51
2023-04-19T11:32:34.092Z,979.52
2023-04-19T11:33:33.999Z,979.46
2023-04-19T11:34:33.914Z,979.46
2023-04-19T11:35:33.833Z,979.45
2023-04-19T11:36:33.766Z,979.43
2023-04-19T11:37:35.148Z,979.42
2023-04-19T11:38:33.592Z,979.39
2023-04-19T11:39:33.515Z,979.38
2023-04-19T11:40:33.432Z,979.39
2023-04-19T11:41:33.356Z,979.34
2023-04-19T11:42:33.278Z,979.30
2023-04-19T11:43:33.197Z,979.37
2023-04-19T11:44:33.120Z,979.39
2023-04-19T11:45:36.645Z,979.31
2023-04-19T11:46:33.038Z,979.27
2023-04-19T11:47:32.897Z,979.27
2023-04-19T11:48:32.799Z,979.27
2023-04-19T11:49:32.786Z,979.21
2023-04-19T11:50:32.652Z,979.29
2023-04-19T11:51:32.572Z,979.28
2023-04-19T11:52:32.488Z,979.27
2023-04-19T11:53:32.423Z,979.18
2023-04-19T11:54:32.332Z,979.19
2023-04-19T11:55:32.251Z,979.18
2023-04-19T11:56:32.184Z,979.18
2023-04-19T11:57:32.093Z,979.17
2023-04-19T11:58:32.082Z,979.13
2023-04-19T11:59:31.932Z,979.06
2023-04-19T12:00:31.884Z,979.17
2023-04-19T12:01:31.766Z,979.14
2023-04-19T12:02:31.800Z,979.16
2023-04-19T12:03:31.855Z,979.14
2023-04-19T12:04:31.944Z,979.12
2023-04-19T12:05:31.830Z,979.09
2023-04-19T12:06:31.381Z,979.03
2023-04-19T12:07:31.301Z,979.09
2023-04-19T12:08:31.219Z,979.13
2023-04-19T12:09:31.142Z,979.06
2023-04-19T12:10:31.060Z,979.10
2023-04-19T12:11:30.991Z,979.05
2023-04-19T12:12:30.909Z,979.06
2023-04-19T12:13:30.840Z,979.03
2023-04-19T12:14:30.768Z,979.00
2023-04-19T12:15:30.668Z,978.97
2023-04-19T12:16:30.599Z,978.94
2023-04-19T12:17:30.527Z,979.00
2023-04-19T12:18:30.487Z,978.96
2023-04-19T12:19:30.352Z,978.98
2023-04-19T12:20:30.275Z,978.97
2023-04-19T12:21:30.212Z,978.97
2023-04-19T12:22:30.128Z,978.97
2023-04-19T12:23:30.043Z,978.93
2023-04-19T12:24:29.963Z,978.97
2023-04-19T12:28:10.552Z,978.94
2023-04-19T12:28:14.584Z,978.93
2023-04-19T12:29:10.471Z,978.97
2023-04-19T12:30:10.409Z,978.90
2023-04-19T12:31:10.310Z,978.89
2023-04-19T12:32:10.288Z,978.88
2023-04-19T12:33:10.224Z,978.86
2023-04-19T12:34:10.080Z,978.83
2023-04-19T12:35:09.999Z,978.84
2023-04-19T12:36:09.925Z,978.83
2023-04-19T12:37:09.847Z,978.77
2023-04-19T12:38:09.803Z,978.77
2023-04-19T12:39:09.680Z,978.79
2023-04-19T12:40:09.607Z,978.75
2023-04-19T12:41:09.524Z,978.74
2023-04-19T12:42:09.464Z,978.79
2023-04-19T12:43:09.365Z,978.76
2023-04-19T12:44:09.291Z,978.77
2023-04-19T12:45:09.213Z,978.74
2023-04-19T12:46:09.173Z,978.72
2023-04-19T12:47:09.051Z,978.71
2023-04-19T12:48:09.061Z,978.72
2023-04-19T12:49:08.903Z,978.69
2023-04-19T12:50:08.821Z,978.66
2023-04-19T12:51:08.740Z,978.66
2023-04-19T12:52:08.661Z,978.66
2023-04-19T12:53:08.578Z,978.70
2023-04-19T12:54:08.509Z,978.69
2023-04-19T12:55:08.422Z,978.71
2023-04-19T12:56:08.349Z,978.70
2023-04-19T12:57:08.267Z,978.70
2023-04-19T12:58:08.188Z,978.68
2023-04-19T12:59:08.116Z,978.68
2023-04-19T13:00:08.039Z,978.58
2023-04-19T13:01:07.980Z,978.67
2023-04-19T13:02:07.922Z,978.68
2023-04-19T13:03:07.991Z,978.55
2023-04-19T13:04:07.912Z,978.59
2023-04-19T13:05:07.670Z,978.59
2023-04-19T13:06:07.561Z,978.50
2023-04-19T13:07:07.484Z,978.56
2023-04-19T13:08:07.430Z,978.56
2023-04-19T13:10:07.256Z,978.52
2023-04-19T13:11:07.177Z,978.53
2023-04-19T13:12:07.095Z,978.50
2023-04-19T13:13:07.015Z,978.51
2023-04-19T13:14:06.943Z,978.51
2023-04-19T13:15:06.872Z,978.54
2023-04-19T13:16:06.819Z,978.49
2023-04-19T13:17:06.708Z,978.57
2023-04-19T13:18:06.654Z,978.59
2023-04-19T13:19:06.548Z,978.54
2023-04-19T13:20:06.469Z,978.54
2023-04-19T13:21:08.304Z,978.46
2023-04-19T13:22:06.318Z,978.44
2023-04-19T13:23:06.233Z,978.46
2023-04-19T13:24:06.160Z,978.50
2023-04-19T13:25:06.198Z,978.44
2023-04-19T13:26:06.014Z,978.47
2023-04-19T13:27:08.618Z,978.43
2023-04-19T13:28:05.857Z,978.35
2023-04-19T13:29:05.772Z,978.32
2023-04-19T13:30:05.730Z,978.38
2023-04-19T13:31:05.691Z,978.46
2023-04-19T13:32:05.538Z,978.37
2023-04-19T13:33:08.194Z,978.38
2023-04-19T13:34:05.390Z,978.48
2023-04-19T13:35:05.314Z,978.47
2023-04-19T13:36:05.228Z,978.48
2023-04-19T13:37:05.152Z,978.40
2023-04-19T13:38:05.081Z,978.42
2023-04-19T13:39:07.590Z,978.53
2023-04-19T13:40:18.078Z,978.44
2023-04-19T13:41:04.846Z,978.38
2023-04-19T13:42:04.756Z,978.51
2023-04-19T13:43:04.710Z,978.44
2023-04-19T13:44:04.604Z,978.51
2023-04-19T13:45:04.532Z,978.43
2023-04-19T13:46:04.452Z,978.40
2023-04-19T13:47:04.461Z,978.42
2023-04-19T13:48:04.331Z,978.48
2023-04-19T13:49:04.223Z,978.45
2023-04-19T13:50:04.177Z,978.42
2023-04-19T13:51:04.059Z,978.48
2023-04-19T13:52:03.997Z,978.44
2023-04-19T13:53:03.937Z,978.46
2023-04-19T13:54:03.829Z,978.38
2023-04-19T13:55:03.759Z,978.41
2023-04-19T13:56:03.674Z,978.33
2023-04-19T13:57:03.604Z,978.36
2023-04-19T13:58:03.544Z,978.33
2023-04-19T13:59:03.440Z,978.34
2023-04-19T14:00:03.378Z,978.42
2023-04-19T14:01:03.316Z,978.37
2023-04-19T14:02:03.290Z,978.37
2023-04-19T14:03:03.323Z,978.44
2023-04-19T14:04:03.368Z,978.38